La Pointe, Wisconsin
Current Conditions -  °F | °C
As of 3:35 AM on Monday 24 Nov 2014 (Local Time) from KASX Reporting Station
Haze Haze  
Wind Chill: 29°   Ceiling: 1500
Heat Index: 35°   Visibility: 6mi
Dew Point: 34°   Wind: 7mph
Humidity: 96%   Direction: 300°WNW
Pressure: 29.2"   Gusts: NA
Location:  46.78°N, 90.79°W
Report Text: KASX 240935Z AUTO 30006KT 6SM UP BR OVC015 02/01 A2920 RMK AO2 P0002 T00170011
Loading
Personal Weather Stations






























Interactive Weather Map New forecast layout! Learn more

10-Day Weather Forecast

Advertisements
Track Severe Weather on mobile